sensor_id;sensor_type;location;lat;lon;timestamp;P1;durP1;ratioP1;P2;durP2;ratioP2
10333;SDS011;5212;47.892;16.406;2023-09-19T00:00:15;0.53;;;0.30;;
10333;SDS011;5212;47.892;16.406;2023-09-19T00:02:44;0.47;;;0.30;;
10333;SDS011;5212;47.892;16.406;2023-09-19T00:05:13;0.40;;;0.30;;
10333;SDS011;5212;47.892;16.406;2023-09-19T00:07:39;1.33;;;0.40;;
10333;SDS011;5212;47.892;16.406;2023-09-19T00:10:06;1.93;;;0.50;;
10333;SDS011;5212;47.892;16.406;2023-09-19T00:12:34;0.60;;;0.40;;
10333;SDS011;5212;47.892;16.406;2023-09-19T00:15:00;0.70;;;0.40;;
10333;SDS011;5212;47.892;16.406;2023-09-19T00:17:30;1.03;;;0.40;;
10333;SDS011;5212;47.892;16.406;2023-09-19T00:19:57;0.40;;;0.30;;
10333;SDS011;5212;47.892;16.406;2023-09-19T00:22:23;1.13;;;0.50;;
10333;SDS011;5212;47.892;16.406;2023-09-19T00:24:51;0.37;;;0.23;;
10333;SDS011;5212;47.892;16.406;2023-09-19T00:27:17;0.60;;;0.30;;
10333;SDS011;5212;47.892;16.406;2023-09-19T00:29:44;0.83;;;0.40;;
10333;SDS011;5212;47.892;16.406;2023-09-19T00:32:10;0.50;;;0.37;;
10333;SDS011;5212;47.892;16.406;2023-09-19T00:34:35;0.40;;;0.30;;
10333;SDS011;5212;47.892;16.406;2023-09-19T00:37:02;0.90;;;0.47;;
10333;SDS011;5212;47.892;16.406;2023-09-19T00:39:29;0.93;;;0.57;;
10333;SDS011;5212;47.892;16.406;2023-09-19T00:41:56;1.37;;;0.40;;
10333;SDS011;5212;47.892;16.406;2023-09-19T00:44:22;1.00;;;0.40;;
10333;SDS011;5212;47.892;16.406;2023-09-19T00:46:48;0.50;;;0.40;;
10333;SDS011;5212;47.892;16.406;2023-09-19T00:49:15;0.87;;;0.47;;
10333;SDS011;5212;47.892;16.406;2023-09-19T00:51:41;0.60;;;0.40;;
10333;SDS011;5212;47.892;16.406;2023-09-19T00:54:10;1.43;;;0.37;;
10333;SDS011;5212;47.892;16.406;2023-09-19T00:56:38;0.83;;;0.60;;
10333;SDS011;5212;47.892;16.406;2023-09-19T00:59:05;0.43;;;0.33;;
10333;SDS011;5212;47.892;16.406;2023-09-19T01:01:31;0.60;;;0.40;;
10333;SDS011;5212;47.892;16.406;2023-09-19T01:03:57;1.13;;;0.47;;
10333;SDS011;5212;47.892;16.406;2023-09-19T01:06:23;0.53;;;0.40;;
10333;SDS011;5212;47.892;16.406;2023-09-19T01:08:50;0.50;;;0.47;;
10333;SDS011;5212;47.892;16.406;2023-09-19T01:11:25;0.73;;;0.40;;
10333;SDS011;5212;47.892;16.406;2023-09-19T01:14:02;2.83;;;0.50;;
10333;SDS011;5212;47.892;16.406;2023-09-19T01:16:41;1.77;;;0.50;;
10333;SDS011;5212;47.892;16.406;2023-09-19T01:19:19;0.70;;;0.40;;
10333;SDS011;5212;47.892;16.406;2023-09-19T01:22:07;1.80;;;0.50;;
10333;SDS011;5212;47.892;16.406;2023-09-19T01:24:47;1.00;;;0.60;;
10333;SDS011;5212;47.892;16.406;2023-09-19T01:27:31;0.93;;;0.50;;
10333;SDS011;5212;47.892;16.406;2023-09-19T01:30:13;0.67;;;0.50;;
10333;SDS011;5212;47.892;16.406;2023-09-19T01:32:40;1.43;;;0.57;;
10333;SDS011;5212;47.892;16.406;2023-09-19T01:35:06;2.83;;;0.60;;
10333;SDS011;5212;47.892;16.406;2023-09-19T01:37:37;3.10;;;0.60;;
10333;SDS011;5212;47.892;16.406;2023-09-19T01:40:04;0.87;;;0.53;;
10333;SDS011;5212;47.892;16.406;2023-09-19T01:42:43;2.00;;;0.43;;
10333;SDS011;5212;47.892;16.406;2023-09-19T01:45:12;2.43;;;0.70;;
10333;SDS011;5212;47.892;16.406;2023-09-19T01:47:41;1.30;;;0.60;;
10333;SDS011;5212;47.892;16.406;2023-09-19T01:50:13;0.70;;;0.53;;
10333;SDS011;5212;47.892;16.406;2023-09-19T01:52:45;1.07;;;0.60;;
10333;SDS011;5212;47.892;16.406;2023-09-19T01:55:14;0.40;;;0.30;;
10333;SDS011;5212;47.892;16.406;2023-09-19T01:57:45;1.70;;;0.63;;
10333;SDS011;5212;47.892;16.406;2023-09-19T02:00:17;0.60;;;0.50;;
10333;SDS011;5212;47.892;16.406;2023-09-19T02:02:45;0.50;;;0.47;;
10333;SDS011;5212;47.892;16.406;2023-09-19T02:05:13;1.07;;;0.40;;
10333;SDS011;5212;47.892;16.406;2023-09-19T02:07:39;0.50;;;0.50;;
10333;SDS011;5212;47.892;16.406;2023-09-19T02:10:06;1.13;;;0.60;;
10333;SDS011;5212;47.892;16.406;2023-09-19T02:12:35;1.00;;;0.50;;
10333;SDS011;5212;47.892;16.406;2023-09-19T02:15:01;1.30;;;0.50;;
10333;SDS011;5212;47.892;16.406;2023-09-19T02:17:28;0.97;;;0.50;;
10333;SDS011;5212;47.892;16.406;2023-09-19T02:19:54;1.63;;;0.67;;
10333;SDS011;5212;47.892;16.406;2023-09-19T02:22:20;3.33;;;0.40;;
10333;SDS011;5212;47.892;16.406;2023-09-19T02:24:46;0.67;;;0.47;;
10333;SDS011;5212;47.892;16.406;2023-09-19T02:27:13;1.63;;;0.60;;
10333;SDS011;5212;47.892;16.406;2023-09-19T02:29:41;0.93;;;0.60;;
10333;SDS011;5212;47.892;16.406;2023-09-19T02:32:07;1.70;;;0.53;;
10333;SDS011;5212;47.892;16.406;2023-09-19T02:34:35;2.20;;;0.70;;
10333;SDS011;5212;47.892;16.406;2023-09-19T02:37:01;0.70;;;0.50;;
10333;SDS011;5212;47.892;16.406;2023-09-19T02:39:30;4.30;;;0.80;;
10333;SDS011;5212;47.892;16.406;2023-09-19T02:41:56;0.50;;;0.43;;
10333;SDS011;5212;47.892;16.406;2023-09-19T02:44:22;1.30;;;0.70;;
10333;SDS011;5212;47.892;16.406;2023-09-19T02:46:49;0.73;;;0.50;;
10333;SDS011;5212;47.892;16.406;2023-09-19T02:49:15;0.50;;;0.30;;
10333;SDS011;5212;47.892;16.406;2023-09-19T02:51:43;0.97;;;0.77;;
10333;SDS011;5212;47.892;16.406;2023-09-19T02:54:10;0.47;;;0.40;;
10333;SDS011;5212;47.892;16.406;2023-09-19T02:56:36;0.67;;;0.50;;
10333;SDS011;5212;47.892;16.406;2023-09-19T02:59:03;0.97;;;0.50;;
10333;SDS011;5212;47.892;16.406;2023-09-19T03:01:30;1.40;;;0.50;;
10333;SDS011;5212;47.892;16.406;2023-09-19T03:03:57;0.93;;;0.50;;
10333;SDS011;5212;47.892;16.406;2023-09-19T03:06:24;1.23;;;0.50;;
10333;SDS011;5212;47.892;16.406;2023-09-19T03:08:50;0.83;;;0.50;;
10333;SDS011;5212;47.892;16.406;2023-09-19T03:11:17;1.23;;;0.57;;
10333;SDS011;5212;47.892;16.406;2023-09-19T03:13:50;0.60;;;0.40;;
10333;SDS011;5212;47.892;16.406;2023-09-19T03:16:16;0.67;;;0.40;;
10333;SDS011;5212;47.892;16.406;2023-09-19T03:18:44;1.40;;;0.50;;
10333;SDS011;5212;47.892;16.406;2023-09-19T03:21:10;1.27;;;0.60;;
10333;SDS011;5212;47.892;16.406;2023-09-19T03:23:36;1.30;;;0.40;;
10333;SDS011;5212;47.892;16.406;2023-09-19T03:26:04;1.50;;;0.70;;
10333;SDS011;5212;47.892;16.406;2023-09-19T03:28:32;0.90;;;0.47;;
10333;SDS011;5212;47.892;16.406;2023-09-19T03:30:59;1.90;;;0.50;;
10333;SDS011;5212;47.892;16.406;2023-09-19T03:33:26;0.87;;;0.63;;
10333;SDS011;5212;47.892;16.406;2023-09-19T03:35:52;0.63;;;0.40;;
10333;SDS011;5212;47.892;16.406;2023-09-19T03:38:18;0.80;;;0.50;;
10333;SDS011;5212;47.892;16.406;2023-09-19T03:40:45;0.67;;;0.40;;
10333;SDS011;5212;47.892;16.406;2023-09-19T03:43:12;1.17;;;0.60;;
10333;SDS011;5212;47.892;16.406;2023-09-19T03:45:38;2.37;;;0.40;;
10333;SDS011;5212;47.892;16.406;2023-09-19T03:48:07;0.93;;;0.40;;
10333;SDS011;5212;47.892;16.406;2023-09-19T03:50:34;1.77;;;0.70;;
10333;SDS011;5212;47.892;16.406;2023-09-19T03:53:00;0.97;;;0.60;;
10333;SDS011;5212;47.892;16.406;2023-09-19T03:55:27;0.90;;;0.60;;
10333;SDS011;5212;47.892;16.406;2023-09-19T03:57:53;0.50;;;0.40;;
10333;SDS011;5212;47.892;16.406;2023-09-19T04:00:20;0.60;;;0.43;;
10333;SDS011;5212;47.892;16.406;2023-09-19T04:02:48;0.80;;;0.50;;
10333;SDS011;5212;47.892;16.406;2023-09-19T04:05:14;1.17;;;0.60;;
10333;SDS011;5212;47.892;16.406;2023-09-19T04:07:40;0.50;;;0.50;;
10333;SDS011;5212;47.892;16.406;2023-09-19T04:10:07;0.70;;;0.40;;
10333;SDS011;5212;47.892;16.406;2023-09-19T04:12:34;0.50;;;0.50;;
10333;SDS011;5212;47.892;16.406;2023-09-19T04:15:00;0.63;;;0.40;;
10333;SDS011;5212;47.892;16.406;2023-09-19T04:17:26;1.90;;;0.60;;
10333;SDS011;5212;47.892;16.406;2023-09-19T04:19:52;0.70;;;0.57;;
10333;SDS011;5212;47.892;16.406;2023-09-19T04:22:18;0.80;;;0.60;;
10333;SDS011;5212;47.892;16.406;2023-09-19T04:24:44;1.33;;;0.50;;
10333;SDS011;5212;47.892;16.406;2023-09-19T04:27:10;0.73;;;0.60;;
10333;SDS011;5212;47.892;16.406;2023-09-19T04:29:37;1.03;;;0.60;;
10333;SDS011;5212;47.892;16.406;2023-09-19T04:32:04;0.70;;;0.50;;
10333;SDS011;5212;47.892;16.406;2023-09-19T04:34:31;0.60;;;0.40;;
10333;SDS011;5212;47.892;16.406;2023-09-19T04:36:59;0.80;;;0.50;;
10333;SDS011;5212;47.892;16.406;2023-09-19T04:39:25;1.40;;;0.80;;
10333;SDS011;5212;47.892;16.406;2023-09-19T04:41:52;0.97;;;0.60;;
10333;SDS011;5212;47.892;16.406;2023-09-19T04:44:18;1.23;;;0.50;;
10333;SDS011;5212;47.892;16.406;2023-09-19T04:46:44;0.70;;;0.50;;
10333;SDS011;5212;47.892;16.406;2023-09-19T04:49:11;3.23;;;0.80;;
10333;SDS011;5212;47.892;16.406;2023-09-19T04:51:38;1.50;;;0.77;;
10333;SDS011;5212;47.892;16.406;2023-09-19T04:54:04;0.90;;;0.50;;
10333;SDS011;5212;47.892;16.406;2023-09-19T04:56:31;1.37;;;0.80;;
10333;SDS011;5212;47.892;16.406;2023-09-19T04:58:58;1.87;;;0.50;;
10333;SDS011;5212;47.892;16.406;2023-09-19T05:01:25;2.23;;;0.60;;
10333;SDS011;5212;47.892;16.406;2023-09-19T05:03:51;2.40;;;0.60;;
10333;SDS011;5212;47.892;16.406;2023-09-19T05:06:17;1.60;;;0.73;;
10333;SDS011;5212;47.892;16.406;2023-09-19T05:08:44;1.00;;;0.87;;
10333;SDS011;5212;47.892;16.406;2023-09-19T05:11:10;1.37;;;0.70;;
10333;SDS011;5212;47.892;16.406;2023-09-19T05:13:36;1.10;;;0.70;;
10333;SDS011;5212;47.892;16.406;2023-09-19T05:16:03;2.13;;;0.80;;
10333;SDS011;5212;47.892;16.406;2023-09-19T05:18:29;1.57;;;0.80;;
10333;SDS011;5212;47.892;16.406;2023-09-19T05:20:55;1.00;;;0.70;;
10333;SDS011;5212;47.892;16.406;2023-09-19T05:23:21;1.57;;;0.77;;
10333;SDS011;5212;47.892;16.406;2023-09-19T05:25:48;3.63;;;0.93;;
10333;SDS011;5212;47.892;16.406;2023-09-19T05:28:14;1.10;;;0.80;;
10333;SDS011;5212;47.892;16.406;2023-09-19T05:30:40;1.20;;;0.80;;
10333;SDS011;5212;47.892;16.406;2023-09-19T05:33:08;1.00;;;0.70;;
10333;SDS011;5212;47.892;16.406;2023-09-19T05:35:34;0.80;;;0.60;;
10333;SDS011;5212;47.892;16.406;2023-09-19T05:38:03;1.40;;;0.80;;
10333;SDS011;5212;47.892;16.406;2023-09-19T05:40:30;1.80;;;1.10;;
10333;SDS011;5212;47.892;16.406;2023-09-19T05:42:57;1.20;;;0.90;;
10333;SDS011;5212;47.892;16.406;2023-09-19T05:45:23;2.13;;;0.80;;
10333;SDS011;5212;47.892;16.406;2023-09-19T05:47:50;1.60;;;0.90;;
10333;SDS011;5212;47.892;16.406;2023-09-19T05:50:16;1.43;;;0.73;;
10333;SDS011;5212;47.892;16.406;2023-09-19T05:52:43;1.20;;;0.83;;
10333;SDS011;5212;47.892;16.406;2023-09-19T05:55:10;1.60;;;0.80;;
10333;SDS011;5212;47.892;16.406;2023-09-19T05:57:36;1.43;;;0.83;;
10333;SDS011;5212;47.892;16.406;2023-09-19T06:00:05;1.07;;;0.87;;
10333;SDS011;5212;47.892;16.406;2023-09-19T06:02:34;1.33;;;0.80;;
10333;SDS011;5212;47.892;16.406;2023-09-19T06:05:00;1.43;;;0.97;;
10333;SDS011;5212;47.892;16.406;2023-09-19T06:07:26;1.30;;;0.67;;
10333;SDS011;5212;47.892;16.406;2023-09-19T06:10:01;1.17;;;0.70;;
10333;SDS011;5212;47.892;16.406;2023-09-19T06:12:27;1.20;;;0.80;;
10333;SDS011;5212;47.892;16.406;2023-09-19T06:14:53;1.10;;;0.97;;
10333;SDS011;5212;47.892;16.406;2023-09-19T06:17:20;1.60;;;0.90;;
10333;SDS011;5212;47.892;16.406;2023-09-19T06:19:47;2.70;;;1.00;;
10333;SDS011;5212;47.892;16.406;2023-09-19T06:22:15;2.70;;;1.10;;
10333;SDS011;5212;47.892;16.406;2023-09-19T06:24:43;1.50;;;0.90;;
10333;SDS011;5212;47.892;16.406;2023-09-19T06:27:10;1.77;;;0.70;;
10333;SDS011;5212;47.892;16.406;2023-09-19T06:29:35;1.83;;;0.90;;
10333;SDS011;5212;47.892;16.406;2023-09-19T06:32:02;1.40;;;1.00;;
10333;SDS011;5212;47.892;16.406;2023-09-19T06:34:33;1.10;;;0.93;;
10333;SDS011;5212;47.892;16.406;2023-09-19T06:36:59;2.40;;;0.97;;
10333;SDS011;5212;47.892;16.406;2023-09-19T06:39:25;1.47;;;1.10;;
10333;SDS011;5212;47.892;16.406;2023-09-19T06:41:51;1.57;;;0.97;;
10333;SDS011;5212;47.892;16.406;2023-09-19T06:44:18;2.00;;;0.87;;
10333;SDS011;5212;47.892;16.406;2023-09-19T06:46:47;1.53;;;0.80;;
10333;SDS011;5212;47.892;16.406;2023-09-19T06:49:15;1.17;;;0.77;;
10333;SDS011;5212;47.892;16.406;2023-09-19T06:51:41;1.00;;;0.70;;
10333;SDS011;5212;47.892;16.406;2023-09-19T06:54:08;1.77;;;0.90;;
10333;SDS011;5212;47.892;16.406;2023-09-19T06:56:34;2.10;;;1.07;;
10333;SDS011;5212;47.892;16.406;2023-09-19T06:59:00;1.50;;;0.97;;
10333;SDS011;5212;47.892;16.406;2023-09-19T07:01:27;0.87;;;0.70;;
10333;SDS011;5212;47.892;16.406;2023-09-19T07:03:53;1.37;;;0.80;;
10333;SDS011;5212;47.892;16.406;2023-09-19T07:06:19;1.23;;;0.80;;
10333;SDS011;5212;47.892;16.406;2023-09-19T07:08:46;2.27;;;0.90;;
10333;SDS011;5212;47.892;16.406;2023-09-19T07:11:13;1.43;;;1.10;;
10333;SDS011;5212;47.892;16.406;2023-09-19T07:13:40;1.50;;;0.80;;
10333;SDS011;5212;47.892;16.406;2023-09-19T07:16:06;2.67;;;0.97;;
10333;SDS011;5212;47.892;16.406;2023-09-19T07:18:34;3.00;;;0.97;;
10333;SDS011;5212;47.892;16.406;2023-09-19T07:21:00;1.23;;;0.90;;
10333;SDS011;5212;47.892;16.406;2023-09-19T07:23:30;2.07;;;1.03;;
10333;SDS011;5212;47.892;16.406;2023-09-19T07:26:00;1.80;;;1.03;;
10333;SDS011;5212;47.892;16.406;2023-09-19T07:28:26;1.83;;;1.00;;
10333;SDS011;5212;47.892;16.406;2023-09-19T07:30:53;1.77;;;1.00;;
10333;SDS011;5212;47.892;16.406;2023-09-19T07:33:19;1.30;;;0.80;;
10333;SDS011;5212;47.892;16.406;2023-09-19T07:35:45;1.47;;;1.00;;
10333;SDS011;5212;47.892;16.406;2023-09-19T07:38:12;1.70;;;1.10;;
10333;SDS011;5212;47.892;16.406;2023-09-19T07:40:38;0.80;;;0.70;;
10333;SDS011;5212;47.892;16.406;2023-09-19T07:43:05;1.43;;;1.03;;
10333;SDS011;5212;47.892;16.406;2023-09-19T07:45:32;1.30;;;1.00;;
10333;SDS011;5212;47.892;16.406;2023-09-19T07:47:58;1.80;;;1.10;;
10333;SDS011;5212;47.892;16.406;2023-09-19T07:50:26;1.73;;;0.87;;
10333;SDS011;5212;47.892;16.406;2023-09-19T07:52:54;1.30;;;0.87;;
10333;SDS011;5212;47.892;16.406;2023-09-19T07:55:21;1.40;;;0.80;;
10333;SDS011;5212;47.892;16.406;2023-09-19T07:57:49;1.17;;;0.83;;
10333;SDS011;5212;47.892;16.406;2023-09-19T08:00:16;1.93;;;0.93;;
10333;SDS011;5212;47.892;16.406;2023-09-19T08:02:42;2.03;;;1.10;;
10333;SDS011;5212;47.892;16.406;2023-09-19T08:05:09;2.80;;;1.10;;
10333;SDS011;5212;47.892;16.406;2023-09-19T08:07:36;1.00;;;0.80;;
10333;SDS011;5212;47.892;16.406;2023-09-19T08:10:02;1.30;;;0.90;;
10333;SDS011;5212;47.892;16.406;2023-09-19T08:12:29;1.83;;;1.00;;
10333;SDS011;5212;47.892;16.406;2023-09-19T08:14:55;1.60;;;1.00;;
10333;SDS011;5212;47.892;16.406;2023-09-19T08:17:22;2.00;;;1.00;;
10333;SDS011;5212;47.892;16.406;2023-09-19T08:19:48;1.53;;;1.00;;
10333;SDS011;5212;47.892;16.406;2023-09-19T08:22:14;4.63;;;1.23;;
10333;SDS011;5212;47.892;16.406;2023-09-19T08:24:42;1.63;;;1.10;;
10333;SDS011;5212;47.892;16.406;2023-09-19T08:27:08;2.23;;;1.00;;
10333;SDS011;5212;47.892;16.406;2023-09-19T08:29:35;1.30;;;0.90;;
10333;SDS011;5212;47.892;16.406;2023-09-19T08:32:01;1.73;;;1.00;;
10333;SDS011;5212;47.892;16.406;2023-09-19T08:34:28;1.47;;;1.00;;
10333;SDS011;5212;47.892;16.406;2023-09-19T08:36:59;3.00;;;1.10;;
10333;SDS011;5212;47.892;16.406;2023-09-19T08:39:25;1.07;;;0.77;;
10333;SDS011;5212;47.892;16.406;2023-09-19T08:41:56;2.30;;;1.00;;
10333;SDS011;5212;47.892;16.406;2023-09-19T08:44:22;1.63;;;1.00;;
10333;SDS011;5212;47.892;16.406;2023-09-19T08:46:49;1.07;;;0.97;;
10333;SDS011;5212;47.892;16.406;2023-09-19T08:49:22;1.57;;;0.90;;
10333;SDS011;5212;47.892;16.406;2023-09-19T08:51:53;1.83;;;1.20;;
10333;SDS011;5212;47.892;16.406;2023-09-19T08:54:26;1.73;;;1.10;;
10333;SDS011;5212;47.892;16.406;2023-09-19T08:56:54;1.60;;;1.00;;
10333;SDS011;5212;47.892;16.406;2023-09-19T08:59:23;0.80;;;0.70;;
10333;SDS011;5212;47.892;16.406;2023-09-19T09:01:50;1.50;;;1.10;;
10333;SDS011;5212;47.892;16.406;2023-09-19T09:04:18;2.50;;;0.90;;
10333;SDS011;5212;47.892;16.406;2023-09-19T09:06:45;1.10;;;0.83;;
10333;SDS011;5212;47.892;16.406;2023-09-19T09:09:14;4.83;;;1.10;;
10333;SDS011;5212;47.892;16.406;2023-09-19T09:11:40;1.00;;;0.87;;
10333;SDS011;5212;47.892;16.406;2023-09-19T09:14:06;1.07;;;0.90;;
10333;SDS011;5212;47.892;16.406;2023-09-19T09:16:32;1.70;;;1.07;;
10333;SDS011;5212;47.892;16.406;2023-09-19T09:18:59;1.43;;;0.90;;
10333;SDS011;5212;47.892;16.406;2023-09-19T09:21:26;1.77;;;0.90;;
10333;SDS011;5212;47.892;16.406;2023-09-19T09:23:53;1.50;;;1.00;;
10333;SDS011;5212;47.892;16.406;2023-09-19T09:26:23;3.53;;;1.10;;
10333;SDS011;5212;47.892;16.406;2023-09-19T09:29:06;1.40;;;1.00;;
10333;SDS011;5212;47.892;16.406;2023-09-19T09:31:32;1.23;;;1.03;;
10333;SDS011;5212;47.892;16.406;2023-09-19T09:33:58;3.67;;;1.00;;
10333;SDS011;5212;47.892;16.406;2023-09-19T09:36:34;2.03;;;0.90;;
10333;SDS011;5212;47.892;16.406;2023-09-19T09:39:02;1.73;;;0.80;;
10333;SDS011;5212;47.892;16.406;2023-09-19T09:41:41;1.87;;;0.80;;
10333;SDS011;5212;47.892;16.406;2023-09-19T09:44:11;1.40;;;0.77;;
10333;SDS011;5212;47.892;16.406;2023-09-19T09:46:41;1.00;;;0.70;;
10333;SDS011;5212;47.892;16.406;2023-09-19T09:49:40;3.57;;;0.87;;
10333;SDS011;5212;47.892;16.406;2023-09-19T09:52:19;1.93;;;0.73;;
10333;SDS011;5212;47.892;16.406;2023-09-19T09:54:58;2.67;;;0.60;;
10333;SDS011;5212;47.892;16.406;2023-09-19T09:57:25;0.80;;;0.63;;
10333;SDS011;5212;47.892;16.406;2023-09-19T09:59:52;1.47;;;0.97;;
10333;SDS011;5212;47.892;16.406;2023-09-19T10:02:19;1.10;;;0.80;;
10333;SDS011;5212;47.892;16.406;2023-09-19T10:04:50;0.97;;;0.73;;
10333;SDS011;5212;47.892;16.406;2023-09-19T10:07:39;0.80;;;0.70;;
10333;SDS011;5212;47.892;16.406;2023-09-19T10:10:12;2.53;;;0.80;;
10333;SDS011;5212;47.892;16.406;2023-09-19T10:12:45;1.80;;;0.90;;
10333;SDS011;5212;47.892;16.406;2023-09-19T10:15:13;2.10;;;1.00;;
10333;SDS011;5212;47.892;16.406;2023-09-19T10:17:42;0.87;;;0.80;;
10333;SDS011;5212;47.892;16.406;2023-09-19T10:20:10;2.17;;;1.00;;
10333;SDS011;5212;47.892;16.406;2023-09-19T10:22:49;1.23;;;0.90;;
10333;SDS011;5212;47.892;16.406;2023-09-19T10:25:22;1.50;;;0.80;;
10333;SDS011;5212;47.892;16.406;2023-09-19T10:27:51;3.33;;;0.90;;
10333;SDS011;5212;47.892;16.406;2023-09-19T10:30:18;2.13;;;0.97;;
10333;SDS011;5212;47.892;16.406;2023-09-19T10:32:45;1.13;;;1.00;;
10333;SDS011;5212;47.892;16.406;2023-09-19T10:35:14;1.50;;;0.87;;
10333;SDS011;5212;47.892;16.406;2023-09-19T10:37:42;1.50;;;0.90;;
10333;SDS011;5212;47.892;16.406;2023-09-19T10:40:10;1.50;;;1.03;;
10333;SDS011;5212;47.892;16.406;2023-09-19T10:42:37;1.30;;;0.80;;
10333;SDS011;5212;47.892;16.406;2023-09-19T10:45:05;1.83;;;0.90;;
10333;SDS011;5212;47.892;16.406;2023-09-19T10:47:38;2.40;;;1.07;;
10333;SDS011;5212;47.892;16.406;2023-09-19T10:50:05;0.87;;;0.70;;
10333;SDS011;5212;47.892;16.406;2023-09-19T10:52:39;2.67;;;0.90;;
10333;SDS011;5212;47.892;16.406;2023-09-19T10:55:06;1.37;;;0.80;;
10333;SDS011;5212;47.892;16.406;2023-09-19T10:57:34;1.10;;;0.63;;
10333;SDS011;5212;47.892;16.406;2023-09-19T11:00:02;1.03;;;0.70;;
10333;SDS011;5212;47.892;16.406;2023-09-19T11:06:00;1.20;;;0.90;;
10333;SDS011;5212;47.892;16.406;2023-09-19T11:11:41;1.30;;;0.80;;
10333;SDS011;5212;47.892;16.406;2023-09-19T11:14:14;1.87;;;0.90;;
10333;SDS011;5212;47.892;16.406;2023-09-19T11:16:50;0.90;;;0.70;;
10333;SDS011;5212;47.892;16.406;2023-09-19T11:20:21;0.70;;;0.60;;
10333;SDS011;5212;47.892;16.406;2023-09-19T11:23:22;0.87;;;0.80;;
10333;SDS011;5212;47.892;16.406;2023-09-19T11:25:54;1.83;;;0.77;;
10333;SDS011;5212;47.892;16.406;2023-09-19T11:28:33;0.60;;;0.60;;
10333;SDS011;5212;47.892;16.406;2023-09-19T11:40:05;1.00;;;0.70;;
10333;SDS011;5212;47.892;16.406;2023-09-19T11:42:43;1.67;;;0.80;;
10333;SDS011;5212;47.892;16.406;2023-09-19T11:48:15;0.77;;;0.67;;
10333;SDS011;5212;47.892;16.406;2023-09-19T11:50:44;1.50;;;1.00;;
10333;SDS011;5212;47.892;16.406;2023-09-19T11:53:12;3.00;;;0.83;;
10333;SDS011;5212;47.892;16.406;2023-09-19T11:55:39;0.83;;;0.70;;
10333;SDS011;5212;47.892;16.406;2023-09-19T11:58:08;1.03;;;0.80;;
10333;SDS011;5212;47.892;16.406;2023-09-19T12:00:34;0.90;;;0.70;;
10333;SDS011;5212;47.892;16.406;2023-09-19T12:03:02;1.13;;;0.80;;
10333;SDS011;5212;47.892;16.406;2023-09-19T12:05:33;0.60;;;0.60;;
10333;SDS011;5212;47.892;16.406;2023-09-19T12:07:59;1.03;;;0.90;;
10333;SDS011;5212;47.892;16.406;2023-09-19T12:10:26;0.77;;;0.60;;
10333;SDS011;5212;47.892;16.406;2023-09-19T12:12:53;1.00;;;0.87;;
10333;SDS011;5212;47.892;16.406;2023-09-19T12:15:24;1.00;;;0.70;;
10333;SDS011;5212;47.892;16.406;2023-09-19T12:17:53;1.30;;;0.90;;
10333;SDS011;5212;47.892;16.406;2023-09-19T12:20:20;0.93;;;0.80;;
10333;SDS011;5212;47.892;16.406;2023-09-19T12:22:46;1.10;;;0.80;;
10333;SDS011;5212;47.892;16.406;2023-09-19T12:25:15;1.77;;;0.97;;
10333;SDS011;5212;47.892;16.406;2023-09-19T12:27:42;2.07;;;0.80;;
10333;SDS011;5212;47.892;16.406;2023-09-19T12:30:10;1.07;;;0.70;;
10333;SDS011;5212;47.892;16.406;2023-09-19T12:32:39;0.97;;;0.70;;
10333;SDS011;5212;47.892;16.406;2023-09-19T12:35:05;1.67;;;0.80;;
10333;SDS011;5212;47.892;16.406;2023-09-19T12:37:36;2.07;;;0.80;;
10333;SDS011;5212;47.892;16.406;2023-09-19T12:40:06;1.33;;;0.80;;
10333;SDS011;5212;47.892;16.406;2023-09-19T12:42:42;0.93;;;0.70;;
10333;SDS011;5212;47.892;16.406;2023-09-19T12:45:10;1.47;;;0.80;;
10333;SDS011;5212;47.892;16.406;2023-09-19T12:47:38;0.60;;;0.60;;
10333;SDS011;5212;47.892;16.406;2023-09-19T12:50:05;1.37;;;0.80;;
10333;SDS011;5212;47.892;16.406;2023-09-19T12:52:43;1.37;;;0.80;;
10333;SDS011;5212;47.892;16.406;2023-09-19T12:55:25;1.50;;;0.70;;
10333;SDS011;5212;47.892;16.406;2023-09-19T12:57:55;1.33;;;0.80;;
10333;SDS011;5212;47.892;16.406;2023-09-19T13:00:31;1.00;;;0.60;;
10333;SDS011;5212;47.892;16.406;2023-09-19T13:03:13;1.00;;;0.80;;
10333;SDS011;5212;47.892;16.406;2023-09-19T13:05:47;1.50;;;0.87;;
10333;SDS011;5212;47.892;16.406;2023-09-19T13:08:20;2.23;;;0.60;;
10333;SDS011;5212;47.892;16.406;2023-09-19T13:11:07;1.10;;;0.70;;
10333;SDS011;5212;47.892;16.406;2023-09-19T13:13:38;0.70;;;0.70;;
10333;SDS011;5212;47.892;16.406;2023-09-19T13:16:06;0.60;;;0.57;;
10333;SDS011;5212;47.892;16.406;2023-09-19T13:18:43;1.80;;;0.90;;
10333;SDS011;5212;47.892;16.406;2023-09-19T13:21:10;1.03;;;0.60;;
10333;SDS011;5212;47.892;16.406;2023-09-19T13:23:40;1.30;;;0.70;;
10333;SDS011;5212;47.892;16.406;2023-09-19T13:26:08;1.70;;;0.77;;
10333;SDS011;5212;47.892;16.406;2023-09-19T13:28:35;1.13;;;0.80;;
10333;SDS011;5212;47.892;16.406;2023-09-19T13:31:03;0.87;;;0.70;;
10333;SDS011;5212;47.892;16.406;2023-09-19T13:33:29;1.00;;;0.70;;
10333;SDS011;5212;47.892;16.406;2023-09-19T13:35:55;0.87;;;0.67;;
10333;SDS011;5212;47.892;16.406;2023-09-19T13:38:22;2.90;;;0.70;;
10333;SDS011;5212;47.892;16.406;2023-09-19T13:40:48;1.00;;;0.80;;
10333;SDS011;5212;47.892;16.406;2023-09-19T13:43:14;1.47;;;0.80;;
10333;SDS011;5212;47.892;16.406;2023-09-19T13:45:41;2.30;;;0.83;;
10333;SDS011;5212;47.892;16.406;2023-09-19T13:48:07;1.20;;;0.60;;
10333;SDS011;5212;47.892;16.406;2023-09-19T13:50:34;0.70;;;0.60;;
10333;SDS011;5212;47.892;16.406;2023-09-19T13:53:01;0.70;;;0.70;;
10333;SDS011;5212;47.892;16.406;2023-09-19T13:55:28;3.63;;;0.90;;
10333;SDS011;5212;47.892;16.406;2023-09-19T13:57:54;1.57;;;0.70;;
10333;SDS011;5212;47.892;16.406;2023-09-19T14:00:20;1.60;;;0.80;;
10333;SDS011;5212;47.892;16.406;2023-09-19T14:02:47;0.70;;;0.57;;
10333;SDS011;5212;47.892;16.406;2023-09-19T14:05:14;1.03;;;0.60;;
10333;SDS011;5212;47.892;16.406;2023-09-19T14:07:42;1.77;;;0.80;;
10333;SDS011;5212;47.892;16.406;2023-09-19T14:10:09;1.97;;;0.80;;
10333;SDS011;5212;47.892;16.406;2023-09-19T14:12:36;1.40;;;0.67;;
10333;SDS011;5212;47.892;16.406;2023-09-19T14:15:02;1.10;;;0.60;;
10333;SDS011;5212;47.892;16.406;2023-09-19T14:17:29;1.30;;;0.70;;
10333;SDS011;5212;47.892;16.406;2023-09-19T14:19:55;1.00;;;0.80;;
10333;SDS011;5212;47.892;16.406;2023-09-19T14:22:21;0.90;;;0.70;;
10333;SDS011;5212;47.892;16.406;2023-09-19T14:24:47;0.87;;;0.57;;
10333;SDS011;5212;47.892;16.406;2023-09-19T14:27:13;0.63;;;0.63;;
10333;SDS011;5212;47.892;16.406;2023-09-19T14:29:40;0.90;;;0.70;;
10333;SDS011;5212;47.892;16.406;2023-09-19T14:32:06;1.43;;;0.80;;
10333;SDS011;5212;47.892;16.406;2023-09-19T14:34:32;0.63;;;0.60;;
10333;SDS011;5212;47.892;16.406;2023-09-19T14:36:58;0.83;;;0.60;;
10333;SDS011;5212;47.892;16.406;2023-09-19T14:39:24;1.77;;;0.60;;
10333;SDS011;5212;47.892;16.406;2023-09-19T14:41:51;0.90;;;0.80;;
10333;SDS011;5212;47.892;16.406;2023-09-19T14:44:18;1.57;;;0.87;;
10333;SDS011;5212;47.892;16.406;2023-09-19T14:46:44;0.90;;;0.70;;
10333;SDS011;5212;47.892;16.406;2023-09-19T14:49:11;1.00;;;0.73;;
10333;SDS011;5212;47.892;16.406;2023-09-19T14:51:37;0.90;;;0.70;;
10333;SDS011;5212;47.892;16.406;2023-09-19T14:54:05;1.37;;;0.80;;
10333;SDS011;5212;47.892;16.406;2023-09-19T14:56:33;0.70;;;0.60;;
10333;SDS011;5212;47.892;16.406;2023-09-19T14:58:59;1.27;;;0.70;;
10333;SDS011;5212;47.892;16.406;2023-09-19T15:01:26;0.70;;;0.60;;
10333;SDS011;5212;47.892;16.406;2023-09-19T15:03:52;0.63;;;0.60;;
10333;SDS011;5212;47.892;16.406;2023-09-19T15:06:19;0.80;;;0.60;;
10333;SDS011;5212;47.892;16.406;2023-09-19T15:08:46;1.00;;;0.60;;
10333;SDS011;5212;47.892;16.406;2023-09-19T15:11:13;1.00;;;0.50;;
10333;SDS011;5212;47.892;16.406;2023-09-19T15:13:41;0.93;;;0.50;;